Time;durP1;ratioP1;P1;durP2;ratioP2;P2;SDS_P1;SDS_P2;PMS_P1;PMS_P2;Temp;Humidity;BMP_temperature;BMP_pressure;BME280_temperature;BME280_humidity;BME280_pressure;Samples;Min_cycle;Max_cycle;Signal;HPM_P1;HPM_P2
2022/09/21 00:00:43;;;;;;;4.73;3.10;;;9.20;99.90;;;;;;5012805;28;20276;-40
2022/09/21 00:03:09;;;;;;;5.87;3.20;;;9.10;99.90;;;;;;5029148;28;20178;-41
2022/09/21 00:05:35;;;;;;;5.80;3.53;;;9.00;99.90;;;;;;5023343;28;20186;-41
2022/09/21 00:08:02;;;;;;;3.87;2.80;;;9.00;99.90;;;;;;5015895;28;20243;-41
2022/09/21 00:10:28;;;;;;;4.73;3.33;;;8.90;99.90;;;;;;5040717;28;20186;-41
2022/09/21 00:12:56;;;;;;;4.60;3.13;;;8.80;99.90;;;;;;5012594;28;20174;-39
2022/09/21 00:15:23;;;;;;;5.73;3.00;;;8.80;99.90;;;;;;5020255;28;20252;-41
2022/09/21 00:17:52;;;;;;;5.30;3.63;;;8.80;99.90;;;;;;5050029;28;20182;-39
2022/09/21 00:20:19;;;;;;;3.97;3.57;;;8.80;99.90;;;;;;5020884;28;20179;-41
2022/09/21 00:22:46;;;;;;;6.47;3.43;;;8.60;99.90;;;;;;5016407;28;20183;-42
2022/09/21 00:25:12;;;;;;;5.10;3.60;;;8.50;99.90;;;;;;5014951;28;20212;-41
2022/09/21 00:27:38;;;;;;;5.10;3.37;;;8.30;99.90;;;;;;5019478;28;20197;-41
2022/09/21 00:30:05;;;;;;;7.27;3.43;;;8.30;99.90;;;;;;5021886;28;20186;-41
2022/09/21 00:32:33;;;;;;;3.80;3.17;;;8.30;99.90;;;;;;5049285;28;20214;-41
2022/09/21 00:35:00;;;;;;;4.07;3.10;;;8.30;99.90;;;;;;5023349;28;20209;-41
2022/09/21 00:37:26;;;;;;;4.63;3.10;;;8.30;99.90;;;;;;4999624;28;20179;-41
2022/09/21 00:39:52;;;;;;;4.40;3.37;;;8.30;99.90;;;;;;5016101;28;20198;-41
2022/09/21 00:42:20;;;;;;;5.27;3.10;;;8.30;99.90;;;;;;5015933;28;20198;-40
2022/09/21 00:44:46;;;;;;;3.40;3.10;;;8.20;99.90;;;;;;5042839;28;20220;-39
2022/09/21 00:47:15;;;;;;;5.53;3.30;;;8.10;99.90;;;;;;5018627;28;20208;-40
2022/09/21 00:49:43;;;;;;;5.60;3.87;;;8.10;99.90;;;;;;5010839;28;20190;-35
2022/09/21 00:52:11;;;;;;;5.70;3.80;;;8.10;99.90;;;;;;5032136;28;20201;-38
2022/09/21 00:54:47;;;;;;;4.90;3.20;;;8.10;99.90;;;;;;5005976;28;20239;-41
2022/09/21 00:57:15;;;;;;;5.70;3.43;;;8.20;99.90;;;;;;5034730;28;20276;-41
2022/09/21 00:59:43;;;;;;;6.27;3.03;;;8.20;99.90;;;;;;5052949;28;20206;-39
2022/09/21 01:02:10;;;;;;;5.30;3.27;;;8.30;99.90;;;;;;5035512;28;20201;-40
2022/09/21 01:04:37;;;;;;;6.17;3.63;;;8.20;99.90;;;;;;5019276;28;20185;-37
2022/09/21 01:07:11;;;;;;;8.40;3.73;;;8.20;99.90;;;;;;4998559;28;20181;-40
2022/09/21 01:09:39;;;;;;;4.43;2.83;;;8.20;99.90;;;;;;5014045;28;20197;-39
2022/09/21 01:12:29;;;;;;;6.73;3.17;;;8.10;99.90;;;;;;5018725;28;20194;-40
2022/09/21 01:15:04;;;;;;;4.87;3.23;;;8.10;99.90;;;;;;5001359;28;20208;-41
2022/09/21 01:17:50;;;;;;;5.37;3.07;;;8.00;99.90;;;;;;5031876;28;20184;-36
2022/09/21 01:20:39;;;;;;;5.13;3.23;;;7.80;99.90;;;;;;5015526;28;20187;-34
2022/09/21 01:23:23;;;;;;;4.97;3.40;;;7.70;99.90;;;;;;5015212;28;20181;-37
2022/09/21 01:26:12;;;;;;;5.07;3.80;;;7.60;99.90;;;;;;5018075;28;20189;-37
2022/09/21 01:29:09;;;;;;;4.87;3.40;;;7.60;99.90;;;;;;5013060;28;20274;-34
2022/09/21 01:32:00;;;;;;;5.60;3.40;;;7.60;99.90;;;;;;5014936;28;20200;-35
2022/09/21 01:34:47;;;;;;;5.60;3.70;;;7.70;99.90;;;;;;5025198;28;20212;-35
2022/09/21 01:37:24;;;;;;;6.10;4.00;;;7.70;99.90;;;;;;4969130;28;20256;-37
2022/09/21 01:39:55;;;;;;;8.03;3.53;;;7.70;99.90;;;;;;5021050;28;20231;-35
2022/09/21 01:42:23;;;;;;;5.93;3.20;;;7.70;99.90;;;;;;4998185;28;20204;-36
2022/09/21 01:44:50;;;;;;;9.17;3.53;;;7.60;99.90;;;;;;5021302;28;20191;-35
2022/09/21 01:47:17;;;;;;;4.37;3.67;;;7.60;99.90;;;;;;5014519;28;20170;-34
2022/09/21 01:49:52;;;;;;;6.03;3.40;;;7.60;99.90;;;;;;5043677;28;20208;-35
2022/09/21 01:52:18;;;;;;;3.97;3.20;;;7.50;99.90;;;;;;5017981;28;20249;-36
2022/09/21 01:54:57;;;;;;;5.30;3.63;;;7.40;99.90;;;;;;5017171;28;20625;-36
2022/09/21 01:57:29;;;;;;;3.63;3.30;;;7.40;99.90;;;;;;5032621;28;20322;-33
2022/09/21 01:59:58;;;;;;;5.57;3.90;;;7.30;99.90;;;;;;5014252;28;20178;-38
2022/09/21 02:02:36;;;;;;;6.17;4.20;;;7.20;99.90;;;;;;5009449;28;20201;-32
2022/09/21 02:05:05;;;;;;;6.47;4.03;;;7.20;99.90;;;;;;5032164;28;20205;-34
2022/09/21 02:07:32;;;;;;;3.97;3.40;;;7.10;99.90;;;;;;5014185;28;20181;-38
2022/09/21 02:10:01;;;;;;;5.23;3.80;;;7.00;99.90;;;;;;4997710;28;20199;-38
2022/09/21 02:12:30;;;;;;;6.93;3.80;;;7.00;99.90;;;;;;5031799;28;20196;-35
2022/09/21 02:14:56;;;;;;;5.60;3.97;;;6.90;99.90;;;;;;4997767;28;20266;-36
2022/09/21 02:17:30;;;;;;;5.13;4.20;;;6.90;99.90;;;;;;5024296;28;20181;-36
2022/09/21 02:20:18;;;;;;;4.73;3.90;;;6.90;99.90;;;;;;5011548;28;20277;-35
2022/09/21 02:22:53;;;;;;;4.70;3.50;;;6.90;99.90;;;;;;5013624;28;20195;-34
2022/09/21 02:25:34;;;;;;;5.07;3.90;;;6.90;99.90;;;;;;5002585;28;20295;-34
2022/09/21 02:28:26;;;;;;;4.63;3.83;;;6.90;99.90;;;;;;5013604;28;20259;-34
2022/09/21 02:31:09;;;;;;;5.40;3.90;;;6.90;99.90;;;;;;5032754;28;20574;-34
2022/09/21 02:34:02;;;;;;;9.57;4.13;;;6.90;99.90;;;;;;5016700;28;20192;-34
2022/09/21 02:36:58;;;;;;;5.93;3.80;;;6.90;99.90;;;;;;4997550;28;20193;-39
2022/09/21 02:39:51;;;;;;;3.50;3.10;;;6.90;99.90;;;;;;5009912;28;20185;-34
2022/09/21 02:42:26;;;;;;;4.00;3.23;;;6.80;99.90;;;;;;4997633;28;20201;-35
2022/09/21 02:45:18;;;;;;;4.27;3.27;;;6.80;99.90;;;;;;4996563;28;20267;-37
2022/09/21 02:48:10;;;;;;;5.70;3.87;;;6.70;99.90;;;;;;5013390;28;20197;-35
2022/09/21 02:50:45;;;;;;;6.00;3.70;;;6.60;99.90;;;;;;5016782;28;20217;-34
2022/09/21 02:53:14;;;;;;;6.80;3.53;;;6.70;99.90;;;;;;5029671;28;20224;-36
2022/09/21 02:55:43;;;;;;;6.33;3.67;;;6.60;99.90;;;;;;5046980;28;20271;-36
2022/09/21 02:58:13;;;;;;;7.30;4.17;;;6.60;99.90;;;;;;5029819;28;20180;-33
2022/09/21 03:00:39;;;;;;;4.67;3.43;;;6.60;99.90;;;;;;5029903;28;20206;-33
2022/09/21 03:03:19;;;;;;;4.90;4.03;;;6.50;99.90;;;;;;5031270;28;20182;-34
2022/09/21 03:05:48;;;;;;;4.43;3.70;;;6.50;99.90;;;;;;5015819;28;20211;-35
2022/09/21 03:08:18;;;;;;;7.87;3.57;;;6.50;99.90;;;;;;5013904;28;20195;-33
2022/09/21 03:10:45;;;;;;;4.40;3.80;;;6.50;99.90;;;;;;5030792;28;20200;-38
2022/09/21 03:13:13;;;;;;;5.30;3.60;;;6.50;99.90;;;;;;5038260;28;20215;-35
2022/09/21 03:15:40;;;;;;;5.07;3.80;;;6.50;99.90;;;;;;5013358;28;20183;-32
2022/09/21 03:18:10;;;;;;;3.77;3.20;;;6.40;99.90;;;;;;5040147;28;20316;-33
2022/09/21 03:20:44;;;;;;;4.93;3.80;;;6.40;99.90;;;;;;5032800;28;20229;-34
2022/09/21 03:23:11;;;;;;;5.90;3.50;;;6.40;99.90;;;;;;5022866;28;20188;-37
2022/09/21 03:25:37;;;;;;;4.37;3.50;;;6.40;99.90;;;;;;5013323;28;20204;-36
2022/09/21 03:28:05;;;;;;;4.17;3.53;;;6.40;99.90;;;;;;5031608;28;20268;-36
2022/09/21 03:30:31;;;;;;;3.60;3.30;;;6.30;99.90;;;;;;5032966;28;20248;-36
2022/09/21 03:32:57;;;;;;;3.50;3.20;;;6.30;99.90;;;;;;5012813;28;20265;-35
2022/09/21 03:35:26;;;;;;;4.80;3.40;;;6.40;99.90;;;;;;4996693;28;20185;-34
2022/09/21 03:37:54;;;;;;;4.30;3.40;;;6.30;99.90;;;;;;5007073;28;20186;-36
2022/09/21 03:40:20;;;;;;;4.83;3.63;;;6.30;99.90;;;;;;5016158;28;20197;-35
2022/09/21 03:42:46;;;;;;;4.20;3.30;;;6.40;99.90;;;;;;5013032;28;20192;-34
2022/09/21 03:45:12;;;;;;;3.77;3.13;;;6.40;99.90;;;;;;5032087;28;20203;-34
2022/09/21 03:47:39;;;;;;;5.67;3.70;;;6.40;99.90;;;;;;5012549;28;20253;-36
2022/09/21 03:50:06;;;;;;;4.30;3.57;;;6.30;99.90;;;;;;5012883;28;20179;-33
2022/09/21 03:52:32;;;;;;;5.13;3.60;;;6.30;99.90;;;;;;5031152;28;20659;-37
2022/09/21 03:54:58;;;;;;;5.40;3.77;;;6.40;99.90;;;;;;5016146;28;20190;-35
2022/09/21 03:57:24;;;;;;;5.37;3.90;;;6.30;99.90;;;;;;5039470;28;20175;-34
2022/09/21 03:59:50;;;;;;;7.30;4.67;;;6.40;99.90;;;;;;5000222;28;20183;-33
2022/09/21 04:02:16;;;;;;;9.10;5.63;;;6.40;99.90;;;;;;5024302;28;20197;-36
2022/09/21 04:04:42;;;;;;;8.43;5.13;;;6.40;99.90;;;;;;5019768;28;20182;-34
2022/09/21 04:07:08;;;;;;;9.93;5.60;;;6.60;99.90;;;;;;5019068;28;20244;-34
2022/09/21 04:09:34;;;;;;;11.20;5.30;;;6.60;99.90;;;;;;5000111;28;20198;-32
2022/09/21 04:11:59;;;;;;;10.40;6.73;;;6.60;99.90;;;;;;5001111;28;20197;-34
2022/09/21 04:14:27;;;;;;;9.07;6.13;;;6.60;99.90;;;;;;5034057;28;20191;-35
2022/09/21 04:16:57;;;;;;;9.50;5.43;;;6.70;99.90;;;;;;5034702;28;20185;-34
2022/09/21 04:19:24;;;;;;;13.70;6.80;;;6.80;99.90;;;;;;5040310;28;20200;-36
2022/09/21 04:21:53;;;;;;;9.97;6.73;;;6.80;99.90;;;;;;5016055;28;20210;-33
2022/09/21 04:24:19;;;;;;;10.13;6.53;;;6.80;99.90;;;;;;5032324;28;20182;-33
2022/09/21 04:26:45;;;;;;;13.90;6.43;;;6.90;99.90;;;;;;5023808;28;20211;-34
2022/09/21 04:29:13;;;;;;;11.27;6.17;;;6.90;99.90;;;;;;5032431;28;20186;-33
2022/09/21 04:31:39;;;;;;;18.67;6.13;;;7.00;99.90;;;;;;5035358;28;20593;-37
2022/09/21 04:34:05;;;;;;;12.03;5.40;;;7.00;99.90;;;;;;5016843;28;20180;-36
2022/09/21 04:36:31;;;;;;;10.70;5.43;;;7.00;99.90;;;;;;5035096;28;20206;-38
2022/09/21 04:39:00;;;;;;;14.13;5.10;;;6.90;99.90;;;;;;5017013;28;20181;-36
2022/09/21 04:41:26;;;;;;;10.47;4.63;;;6.80;99.90;;;;;;5016269;28;20211;-35
2022/09/21 04:43:53;;;;;;;16.40;4.83;;;6.70;99.90;;;;;;5033087;28;20190;-34
2022/09/21 04:46:20;;;;;;;9.30;4.80;;;6.60;99.90;;;;;;5034687;28;20285;-36
2022/09/21 04:48:46;;;;;;;11.07;5.40;;;6.60;99.90;;;;;;5034569;28;20177;-38
2022/09/21 04:51:13;;;;;;;15.90;5.87;;;6.50;99.90;;;;;;5035345;28;20200;-39
2022/09/21 04:53:41;;;;;;;48.70;6.10;;;6.50;99.90;;;;;;5022072;28;20332;-36
2022/09/21 04:56:08;;;;;;;8.00;4.40;;;6.40;99.90;;;;;;5037447;28;20198;-36
2022/09/21 04:58:34;;;;;;;8.37;4.90;;;6.40;99.90;;;;;;5022191;28;20182;-34
2022/09/21 05:01:01;;;;;;;18.10;5.73;;;6.40;99.90;;;;;;5033314;28;20198;-35
2022/09/21 05:03:27;;;;;;;32.17;6.33;;;6.40;99.90;;;;;;5034246;28;20185;-34
2022/09/21 05:05:55;;;;;;;20.47;6.23;;;6.40;99.90;;;;;;5015362;28;20218;-36
2022/09/21 05:11:08;;;;;;;10.30;6.00;;;6.40;99.90;;;;;;5015070;28;20219;-34
2022/09/21 05:13:34;;;;;;;7.37;6.60;;;6.50;99.90;;;;;;5019567;28;20236;-32
2022/09/21 05:16:00;;;;;;;12.73;7.20;;;6.50;99.90;;;;;;5018698;28;20210;-35
2022/09/21 05:18:26;;;;;;;16.57;6.60;;;6.50;99.90;;;;;;5016967;28;20198;-33
2022/09/21 05:20:56;;;;;;;9.97;5.37;;;6.50;99.90;;;;;;5031628;28;20658;-33
2022/09/21 05:23:23;;;;;;;11.77;5.83;;;6.50;99.90;;;;;;5030390;28;20190;-36
2022/09/21 05:25:49;;;;;;;6.77;5.30;;;6.60;99.90;;;;;;5015388;28;20204;-34
2022/09/21 05:28:17;;;;;;;13.33;5.50;;;6.60;99.90;;;;;;5026231;28;20201;-37
2022/09/21 05:30:53;;;;;;;11.57;5.77;;;6.60;99.90;;;;;;5015081;28;20673;-36
2022/09/21 05:33:20;;;;;;;10.40;5.30;;;6.70;99.90;;;;;;5033838;28;20178;-35
2022/09/21 05:36:10;;;;;;;5.57;4.60;;;6.70;99.90;;;;;;5014909;28;20187;-36
2022/09/21 05:38:36;;;;;;;5.63;4.67;;;6.70;99.90;;;;;;5014809;28;20192;-32
2022/09/21 05:41:02;;;;;;;14.23;5.30;;;6.60;99.90;;;;;;5014237;28;20208;-37
2022/09/21 05:43:29;;;;;;;16.03;6.30;;;6.60;99.90;;;;;;5028914;28;20637;-33
2022/09/21 05:46:04;;;;;;;18.27;5.27;;;6.60;99.90;;;;;;5009898;28;20634;-38
2022/09/21 05:48:39;;;;;;;12.20;5.73;;;6.60;99.90;;;;;;5021966;28;20175;-34
2022/09/21 05:51:08;;;;;;;8.87;5.67;;;6.60;99.90;;;;;;5024013;28;20201;-35
2022/09/21 05:53:48;;;;;;;13.17;6.87;;;6.60;99.90;;;;;;5024665;28;20250;-34
2022/09/21 05:56:34;;;;;;;14.63;6.00;;;6.60;99.90;;;;;;5034743;28;20255;-34
2022/09/21 05:59:25;;;;;;;11.60;6.33;;;6.60;99.90;;;;;;4988233;28;20224;-35
2022/09/21 06:02:09;;;;;;;19.30;7.07;;;6.60;99.90;;;;;;5029307;28;20217;-37
2022/09/21 06:04:38;;;;;;;9.27;5.80;;;6.70;99.90;;;;;;5050203;28;20258;-38
2022/09/21 06:07:04;;;;;;;7.67;6.00;;;6.70;99.90;;;;;;5017811;28;20216;-35
2022/09/21 06:09:30;;;;;;;23.27;7.37;;;6.70;99.90;;;;;;5023524;28;20181;-38
2022/09/21 06:12:03;;;;;;;8.20;6.67;;;6.70;99.90;;;;;;5024321;28;20209;-33
2022/09/21 06:14:29;;;;;;;11.83;6.17;;;6.70;99.90;;;;;;5039217;28;20187;-35
2022/09/21 06:16:54;;;;;;;12.10;7.20;;;6.80;99.90;;;;;;5043196;28;20190;-37
2022/09/21 06:19:20;;;;;;;69.77;8.03;;;6.70;99.90;;;;;;5021117;28;20175;-37
2022/09/21 06:21:46;;;;;;;18.27;6.57;;;6.70;99.90;;;;;;5042396;28;20223;-33
2022/09/21 06:24:14;;;;;;;13.33;7.33;;;6.60;99.90;;;;;;5057621;28;20294;-38
2022/09/21 06:26:41;;;;;;;10.00;7.23;;;6.60;99.90;;;;;;5040384;28;20241;-36
2022/09/21 06:29:07;;;;;;;16.07;7.77;;;6.50;99.90;;;;;;5033823;28;20226;-34
2022/09/21 06:31:34;;;;;;;10.40;8.03;;;6.60;99.90;;;;;;5013792;28;20237;-33
2022/09/21 06:34:00;;;;;;;46.07;27.47;;;6.60;99.90;;;;;;5018575;28;20285;-33
2022/09/21 06:36:25;;;;;;;13.20;7.80;;;6.70;99.90;;;;;;5041104;28;20266;-37
2022/09/21 06:38:51;;;;;;;14.30;6.83;;;6.70;99.90;;;;;;5031400;28;20189;-32
2022/09/21 06:41:17;;;;;;;12.47;6.63;;;6.70;99.90;;;;;;5013200;28;20211;-35
2022/09/21 06:43:43;;;;;;;10.50;6.10;;;6.80;99.90;;;;;;5047487;28;20331;-37
2022/09/21 06:46:09;;;;;;;11.30;6.77;;;6.80;99.90;;;;;;5054670;28;20271;-35
2022/09/21 06:48:34;;;;;;;14.50;6.57;;;6.90;99.90;;;;;;5020588;28;20211;-38
2022/09/21 06:51:03;;;;;;;10.73;6.53;;;7.00;99.90;;;;;;5013214;28;20198;-34
2022/09/21 06:53:30;;;;;;;14.13;6.53;;;7.00;99.90;;;;;;5004578;28;20183;-38
2022/09/21 06:56:09;;;;;;;12.43;11.07;;;7.10;99.90;;;;;;5038916;28;20192;-36
2022/09/21 06:58:36;;;;;;;8.67;7.47;;;7.20;99.90;;;;;;5024860;28;20283;-35
2022/09/21 07:01:06;;;;;;;7.37;6.00;;;7.30;99.90;;;;;;5022723;28;20203;-32
2022/09/21 07:03:33;;;;;;;10.17;6.17;;;7.10;99.90;;;;;;5036116;28;20183;-35
2022/09/21 07:05:58;;;;;;;6.47;5.43;;;7.10;99.90;;;;;;5031213;28;20263;-34
2022/09/21 07:08:25;;;;;;;6.70;5.93;;;7.20;99.90;;;;;;5012355;28;20178;-36
2022/09/21 07:10:51;;;;;;;8.50;6.17;;;7.30;99.90;;;;;;5031484;28;20285;-36
2022/09/21 07:13:18;;;;;;;9.43;6.07;;;7.40;99.90;;;;;;5022089;28;20193;-33
2022/09/21 07:15:46;;;;;;;19.57;6.40;;;7.50;99.90;;;;;;5016582;28;20193;-35
2022/09/21 07:18:13;;;;;;;10.50;7.33;;;7.50;99.90;;;;;;5020595;28;20199;-38
2022/09/21 07:20:40;;;;;;;10.63;7.80;;;7.40;99.90;;;;;;5019214;28;20299;-40
2022/09/21 07:23:10;;;;;;;6.93;6.23;;;7.50;99.90;;;;;;5018096;28;20277;-38
2022/09/21 07:25:36;;;;;;;9.57;7.80;;;7.60;99.90;;;;;;5030855;28;20204;-35
2022/09/21 07:28:04;;;;;;;8.97;7.03;;;7.60;99.90;;;;;;5045844;28;20181;-38
2022/09/21 07:30:30;;;;;;;9.00;7.40;;;7.60;99.90;;;;;;5046526;28;20195;-36
2022/09/21 07:32:57;;;;;;;15.30;7.20;;;7.70;99.90;;;;;;5015946;28;20264;-34
2022/09/21 07:35:24;;;;;;;8.87;7.07;;;7.70;99.90;;;;;;5012456;28;20189;-36
2022/09/21 07:37:50;;;;;;;11.60;8.43;;;7.80;99.90;;;;;;5028629;28;20183;-35
2022/09/21 07:40:16;;;;;;;10.93;7.90;;;7.80;99.90;;;;;;5012683;28;20192;-34
2022/09/21 07:42:44;;;;;;;10.83;7.87;;;7.90;99.90;;;;;;5012831;28;20185;-32
2022/09/21 07:45:10;;;;;;;11.53;6.83;;;7.90;99.90;;;;;;5019501;28;20252;-33
2022/09/21 07:47:36;;;;;;;8.93;7.40;;;7.80;99.90;;;;;;5020725;28;20559;-34
2022/09/21 07:50:02;;;;;;;9.03;7.43;;;7.90;99.90;;;;;;5032265;28;20183;-41
2022/09/21 07:52:28;;;;;;;8.00;7.20;;;8.00;99.90;;;;;;5012231;28;20197;-39
2022/09/21 07:54:54;;;;;;;8.17;7.17;;;8.00;99.90;;;;;;5029039;28;20190;-40
2022/09/21 08:00:04;;;;;;;9.70;6.83;;;8.20;99.90;;;;;;5014441;28;20267;-41
2022/09/21 08:02:37;;;;;;;8.90;7.13;;;8.30;99.90;;;;;;5028614;28;20190;-39
2022/09/21 08:05:03;;;;;;;10.13;7.40;;;8.40;99.90;;;;;;4995860;28;20182;-40
2022/09/21 08:07:29;;;;;;;9.10;7.13;;;8.50;99.90;;;;;;5018489;28;20174;-40
2022/09/21 08:09:55;;;;;;;8.53;7.30;;;8.60;99.90;;;;;;5049940;28;20185;-40
2022/09/21 08:12:21;;;;;;;10.30;7.63;;;8.70;99.90;;;;;;5018826;28;20235;-37
2022/09/21 08:14:48;;;;;;;8.40;7.50;;;8.80;99.90;;;;;;5017843;28;20175;-39
2022/09/21 08:17:14;;;;;;;10.20;7.43;;;8.90;99.90;;;;;;5031532;28;20207;-39
2022/09/21 08:19:39;;;;;;;12.57;9.60;;;9.00;99.90;;;;;;5026394;28;20214;-40
2022/09/21 08:22:06;;;;;;;9.87;7.83;;;9.10;99.90;;;;;;5049564;28;20205;-41
2022/09/21 08:24:32;;;;;;;10.93;8.50;;;9.20;99.90;;;;;;5015356;28;20186;-40
2022/09/21 08:26:58;;;;;;;12.43;8.50;;;9.20;99.90;;;;;;5023867;28;20221;-40
2022/09/21 08:29:25;;;;;;;9.77;8.27;;;9.40;99.90;;;;;;5012312;28;20175;-41
2022/09/21 08:31:52;;;;;;;10.17;7.93;;;9.60;99.90;;;;;;5021372;28;20209;-40
2022/09/21 08:34:18;;;;;;;9.33;7.60;;;9.90;99.90;;;;;;5049488;28;20186;-41
2022/09/21 08:36:45;;;;;;;9.53;8.03;;;10.10;99.90;;;;;;5031052;28;20253;-40
2022/09/21 08:39:11;;;;;;;9.37;7.50;;;10.30;99.90;;;;;;5011281;28;20190;-41
2022/09/21 08:42:02;;;;;;;10.37;7.83;;;10.30;99.90;;;;;;5028226;28;20208;-41
2022/09/21 08:44:33;;;;;;;8.33;7.20;;;10.50;99.90;;;;;;5034437;28;20200;-41
2022/09/21 08:47:25;;;;;;;10.03;7.17;;;10.60;99.90;;;;;;5017316;28;20212;-37
2022/09/21 08:49:57;;;;;;;7.50;6.80;;;10.80;99.90;;;;;;5018613;28;20188;-39
2022/09/21 08:52:25;;;;;;;9.03;6.93;;;10.90;99.90;;;;;;5034947;28;20190;-41
2022/09/21 08:54:51;;;;;;;9.60;7.37;;;11.10;99.90;;;;;;5018461;28;20268;-40
2022/09/21 08:57:18;;;;;;;8.00;7.20;;;11.00;99.90;;;;;;5051567;28;20189;-40
2022/09/21 08:59:48;;;;;;;10.50;7.87;;;11.10;99.90;;;;;;5028499;28;20191;-38
2022/09/21 09:02:36;;;;;;;8.07;7.27;;;11.10;99.90;;;;;;5046878;28;20201;-42
2022/09/21 09:05:23;;;;;;;9.97;7.13;;;11.30;99.90;;;;;;5026355;28;20272;-41
2022/09/21 09:07:58;;;;;;;8.80;6.90;;;11.50;99.90;;;;;;5042522;28;20273;-41
2022/09/21 09:10:27;;;;;;;8.13;6.87;;;11.70;99.90;;;;;;5034247;28;20282;-40
2022/09/21 09:13:18;;;;;;;8.20;6.10;;;12.00;99.90;;;;;;5033438;28;20174;-41
2022/09/21 09:16:22;;;;;;;9.27;6.40;;;12.20;99.90;;;;;;5018275;28;20187;-41
2022/09/21 09:19:01;;;;;;;7.47;6.60;;;12.50;99.90;;;;;;5011080;28;20190;-41
2022/09/21 09:21:34;;;;;;;9.83;6.00;;;12.50;99.90;;;;;;5013687;28;20208;-41
2022/09/21 09:24:49;;;;;;;8.87;6.17;;;12.60;99.90;;;;;;5034579;28;20237;-41
2022/09/21 09:27:34;;;;;;;6.30;5.27;;;12.80;99.90;;;;;;5021801;28;20219;-41
2022/09/21 09:30:18;;;;;;;6.03;5.27;;;12.80;99.90;;;;;;5032263;28;20222;-41
2022/09/21 09:33:05;;;;;;;5.40;4.90;;;13.00;99.90;;;;;;5032905;28;20187;-40
2022/09/21 09:35:42;;;;;;;3.73;2.93;;;13.30;99.90;;;;;;5039752;28;20239;-39
2022/09/21 09:38:23;;;;;;;7.77;4.30;;;13.50;99.90;;;;;;5034192;28;20212;-40
2022/09/21 09:41:18;;;;;;;4.50;2.63;;;13.60;99.90;;;;;;5034394;28;20296;-41
2022/09/21 09:44:10;;;;;;;5.63;2.30;;;13.90;99.90;;;;;;4979866;28;20193;-41
2022/09/21 09:47:02;;;;;;;3.10;2.33;;;14.00;99.90;;;;;;5032078;28;20213;-41
2022/09/21 09:49:31;;;;;;;4.37;2.23;;;14.30;99.90;;;;;;5009791;28;20196;-40
2022/09/21 09:51:57;;;;;;;2.20;1.70;;;14.50;99.90;;;;;;5029482;28;20195;-41
2022/09/21 09:54:25;;;;;;;5.97;2.80;;;14.60;99.90;;;;;;4998558;28;20170;-41
2022/09/21 09:56:53;;;;;;;2.47;1.90;;;14.70;99.90;;;;;;5028911;28;20240;-41
2022/09/21 09:59:50;;;;;;;2.07;1.60;;;14.80;99.90;;;;;;5031694;28;20187;-41
2022/09/21 10:02:25;;;;;;;4.47;1.87;;;15.00;99.90;;;;;;5023366;28;20232;-40
2022/09/21 10:05:04;;;;;;;2.33;1.70;;;15.20;99.90;;;;;;5032472;28;20529;-42
2022/09/21 10:07:38;;;;;;;3.10;1.90;;;15.30;99.90;;;;;;5032268;28;20180;-42
2022/09/21 10:10:30;;;;;;;2.77;1.60;;;15.40;99.90;;;;;;5029394;28;20197;-41
2022/09/21 10:13:10;;;;;;;1.50;1.20;;;15.60;99.90;;;;;;5034257;28;20170;-41
2022/09/21 10:15:50;;;;;;;4.87;1.63;;;15.60;99.90;;;;;;5029758;28;20204;-42
2022/09/21 10:18:20;;;;;;;3.50;1.37;;;15.50;99.90;;;;;;5032512;28;20205;-41
2022/09/21 10:21:01;;;;;;;2.03;1.40;;;15.60;99.90;;;;;;5019291;28;20206;-42
2022/09/21 10:23:29;;;;;;;2.57;1.00;;;15.60;99.90;;;;;;5030605;28;20186;-41
2022/09/21 10:26:08;;;;;;;2.13;1.07;;;15.60;99.90;;;;;;5033144;28;20209;-42
2022/09/21 10:28:35;;;;;;;2.03;1.10;;;15.40;99.90;;;;;;5016524;28;20174;-41
2022/09/21 10:31:22;;;;;;;1.80;1.00;;;15.40;99.90;;;;;;5013301;28;20252;-39
2022/09/21 10:34:11;;;;;;;2.10;0.93;;;15.60;99.90;;;;;;5031252;28;20277;-40
2022/09/21 10:36:37;;;;;;;3.47;1.30;;;15.70;99.90;;;;;;5013187;28;20201;-37
2022/09/21 10:39:26;;;;;;;1.80;0.77;;;15.80;99.90;;;;;;5032599;28;20185;-37
2022/09/21 10:41:52;;;;;;;1.60;0.97;;;15.90;99.90;;;;;;5024290;28;20202;-36
2022/09/21 10:44:20;;;;;;;1.90;0.90;;;15.90;99.90;;;;;;5016603;28;20262;-35
2022/09/21 10:46:48;;;;;;;3.20;0.90;;;16.10;99.90;;;;;;5012950;28;20215;-34
2022/09/21 10:49:23;;;;;;;2.00;1.00;;;16.20;99.90;;;;;;5028239;28;20189;-35
2022/09/21 10:51:53;;;;;;;1.97;0.80;;;16.30;99.90;;;;;;5032690;28;20213;-37
2022/09/21 10:54:27;;;;;;;1.13;0.90;;;16.50;99.90;;;;;;5012914;28;20573;-37
2022/09/21 10:56:59;;;;;;;1.40;1.23;;;16.70;99.90;;;;;;5012756;28;20185;-36
2022/09/21 10:59:32;;;;;;;2.80;0.97;;;16.80;99.90;;;;;;5047168;28;20273;-36
2022/09/21 11:02:01;;;;;;;1.73;1.00;;;16.90;99.90;;;;;;5040297;28;20198;-35
2022/09/21 11:04:46;;;;;;;1.10;0.87;;;17.00;99.90;;;;;;5016203;28;20193;-39
2022/09/21 11:07:21;;;;;;;2.00;1.00;;;17.20;99.90;;;;;;5049744;28;20718;-40
2022/09/21 11:09:57;;;;;;;1.30;0.80;;;17.40;99.90;;;;;;5016028;28;20189;-35
2022/09/21 11:12:41;;;;;;;1.80;1.02;;;17.60;99.90;;;;;;5030485;28;20205;-36
2022/09/21 11:15:36;;;;;;;1.30;1.10;;;17.60;99.90;;;;;;5025627;28;20208;-38
2022/09/21 11:18:14;;;;;;;2.40;1.07;;;17.80;99.90;;;;;;5037163;28;20212;-37
2022/09/21 11:20:49;;;;;;;2.20;0.90;;;17.80;99.90;;;;;;5043301;28;20206;-39
2022/09/21 11:23:33;;;;;;;2.47;1.23;;;18.00;99.90;;;;;;5012778;28;20220;-39
2022/09/21 11:26:13;;;;;;;2.10;1.10;;;17.90;99.90;;;;;;5019241;28;20210;-35
2022/09/21 11:29:07;;;;;;;2.20;1.00;;;17.90;99.90;;;;;;5023452;28;20270;-37
2022/09/21 11:31:54;;;;;;;2.63;0.98;;;18.10;99.90;;;;;;5012989;28;20289;-40
2022/09/21 11:34:54;;;;;;;2.15;1.00;;;18.20;99.90;;;;;;5032210;28;20178;-39
2022/09/21 11:37:44;;;;;;;2.55;1.20;;;18.40;99.90;;;;;;5000216;28;20200;-38
2022/09/21 11:40:54;;;;;;;3.05;1.15;;;18.20;99.90;;;;;;5013438;28;20178;-38
2022/09/21 11:43:30;;;;;;;1.70;0.90;;;17.90;99.90;;;;;;5013685;28;20178;-40
2022/09/21 11:46:21;;;;;;;2.40;1.27;;;17.80;99.90;;;;;;5045624;28;20227;-35
2022/09/21 11:48:59;;;;;;;2.35;0.90;;;17.90;99.90;;;;;;5012301;28;20664;-37
2022/09/21 11:51:43;;;;;;;2.00;1.30;;;17.80;99.90;;;;;;5013355;28;20663;-38
2022/09/21 11:54:15;;;;;;;1.63;1.13;;;17.70;99.90;;;;;;5013049;28;20236;-37
2022/09/21 11:56:49;;;;;;;1.38;1.10;;;17.60;99.90;;;;;;5006148;28;20186;-37
2022/09/21 12:00:01;;;;;;;2.25;1.00;;;17.70;99.90;;;;;;5005960;28;20178;-37
2022/09/21 12:03:00;;;;;;;1.33;1.00;;;18.00;99.90;;;;;;5003537;28;20201;-38
2022/09/21 12:05:30;;;;;;;2.47;1.00;;;18.20;99.90;;;;;;5011175;28;20206;-39
2022/09/21 12:08:21;;;;;;;1.75;1.00;;;18.50;99.90;;;;;;5018582;28;20223;-36
2022/09/21 12:10:56;;;;;;;1.90;1.00;;;18.70;99.90;;;;;;5021917;28;20230;-41
2022/09/21 12:13:42;;;;;;;2.53;1.25;;;18.90;99.90;;;;;;5042534;28;20219;-41
2022/09/21 12:16:18;;;;;;;1.30;0.85;;;19.20;99.90;;;;;;5045922;28;20305;-39
2022/09/21 12:18:56;;;;;;;2.13;0.75;;;19.00;99.90;;;;;;5017055;28;20232;-38
2022/09/21 12:21:30;;;;;;;1.38;0.82;;;19.10;99.90;;;;;;5036550;28;20698;-37
2022/09/21 12:24:02;;;;;;;2.17;0.80;;;19.20;99.90;;;;;;5007352;28;20204;-40
2022/09/21 12:26:41;;;;;;;0.70;0.68;;;19.20;99.90;;;;;;5032061;28;20212;-41
2022/09/21 12:29:16;;;;;;;2.70;1.00;;;19.10;99.90;;;;;;5031295;28;20170;-39
2022/09/21 12:32:09;;;;;;;2.13;0.80;;;18.90;99.90;;;;;;5034807;28;20189;-36
2022/09/21 12:34:41;;;;;;;1.02;0.80;;;18.60;99.90;;;;;;5035706;28;20296;-36
2022/09/21 12:37:12;;;;;;;2.38;0.80;;;18.60;99.90;;;;;;5039891;28;20241;-36
2022/09/21 12:39:42;;;;;;;1.52;0.90;;;18.60;99.90;;;;;;5021136;28;20191;-36
2022/09/21 12:42:29;;;;;;;1.30;0.88;;;18.60;99.90;;;;;;5015526;28;20206;-36
2022/09/21 12:45:05;;;;;;;2.75;0.90;;;18.50;99.90;;;;;;5018121;28;20178;-34
2022/09/21 12:47:40;;;;;;;2.83;0.90;;;18.70;99.90;;;;;;5031255;28;20177;-40
2022/09/21 12:50:20;;;;;;;1.17;0.52;;;18.90;99.90;;;;;;5019453;28;20173;-35
2022/09/21 12:52:47;;;;;;;1.85;0.68;;;19.10;99.90;;;;;;5052928;28;20205;-37
2022/09/21 12:55:43;;;;;;;2.55;0.90;;;19.10;99.90;;;;;;5033177;28;20239;-39
2022/09/21 12:58:15;;;;;;;1.63;0.77;;;19.30;99.90;;;;;;5040393;28;20185;-36
2022/09/21 13:01:08;;;;;;;1.88;0.80;;;19.50;99.90;;;;;;5041868;28;20229;-37
2022/09/21 13:03:52;;;;;;;1.10;0.80;;;19.40;99.90;;;;;;5024824;28;20170;-36
2022/09/21 13:06:50;;;;;;;0.60;0.60;;;19.50;99.90;;;;;;5049090;28;20301;-39
2022/09/21 13:09:19;;;;;;;1.85;0.77;;;19.60;99.90;;;;;;5052003;28;20269;-37
2022/09/21 13:12:31;;;;;;;0.70;0.70;;;19.70;99.90;;;;;;5030697;28;20201;-38
2022/09/21 13:15:31;;;;;;;2.25;0.70;;;19.80;99.90;;;;;;5016476;28;20193;-38
2022/09/21 13:18:06;;;;;;;0.65;0.65;;;19.90;99.90;;;;;;5067977;23;20262;-37
2022/09/21 13:20:38;;;;;;;1.00;0.80;;;19.90;99.90;;;;;;4993781;28;20273;-36
2022/09/21 13:23:05;;;;;;;1.35;0.73;;;19.70;99.90;;;;;;5023109;28;20178;-36
2022/09/21 13:25:36;;;;;;;2.50;0.90;;;19.50;99.90;;;;;;5027544;28;20306;-35
2022/09/21 13:28:12;;;;;;;1.60;0.70;;;19.50;99.90;;;;;;4996357;28;20199;-37